createdAt,value
2022-12-24T00:01:32.669Z,99208.56
2022-12-24T00:04:02.500Z,99212.06
2022-12-24T00:06:30.485Z,99213.19
2022-12-24T00:08:58.681Z,99218.38
2022-12-24T00:11:26.925Z,99222.47
2022-12-24T00:13:54.993Z,99223.56
2022-12-24T00:16:23.296Z,99225.81
2022-12-24T00:18:51.645Z,99210.53
2022-12-24T00:21:20.925Z,99215.72
2022-12-24T00:23:48.960Z,99212.50
2022-12-24T00:26:17.336Z,99225.38
2022-12-24T00:28:45.396Z,99230.44
2022-12-24T00:31:15.624Z,99228.88
2022-12-24T00:33:44.126Z,99235.78
2022-12-24T00:36:12.294Z,99234.22
2022-12-24T00:38:41.840Z,99235.91
2022-12-24T00:41:24.461Z,99244.16
2022-12-24T00:43:53.729Z,99235.88
2022-12-24T00:46:22.277Z,99244.00
2022-12-24T00:48:50.415Z,99255.34
2022-12-24T00:51:19.146Z,99263.50
2022-12-24T00:53:49.354Z,99273.59
2022-12-24T00:56:18.382Z,99272.47
2022-12-24T00:58:46.768Z,99264.19
2022-12-24T01:01:16.234Z,99276.81
2022-12-24T01:03:48.406Z,99285.66
2022-12-24T01:06:17.862Z,99295.75
2022-12-24T01:08:46.077Z,99296.47
2022-12-24T01:11:15.523Z,99301.66
2022-12-24T01:13:43.912Z,99298.56
2022-12-24T01:16:19.295Z,99293.94
2022-12-24T01:18:48.451Z,99311.31
2022-12-24T01:21:17.003Z,99315.09
2022-12-24T01:23:45.500Z,99314.69
2022-12-24T01:26:15.284Z,99315.41
2022-12-24T01:28:43.648Z,99319.44
2022-12-24T01:31:13.892Z,99322.94
2022-12-24T01:33:42.754Z,99329.25
2022-12-24T01:36:11.155Z,99327.72
2022-12-24T01:38:39.376Z,99316.78
2022-12-24T01:41:34.128Z,99316.47
2022-12-24T01:44:33.082Z,99323.22
2022-12-24T01:47:09.187Z,99325.47
2022-12-24T01:49:39.718Z,99329.97
2022-12-24T01:52:12.034Z,99335.88
2022-12-24T01:54:44.159Z,99341.47
2022-12-24T01:57:17.071Z,99347.38
2022-12-24T01:59:51.620Z,99356.75
2022-12-24T02:02:20.958Z,99365.34
2022-12-24T02:04:56.387Z,99370.09
2022-12-24T02:07:24.432Z,99362.94
2022-12-24T02:09:57.061Z,99364.06
2022-12-24T02:12:26.109Z,99371.38
2022-12-24T02:14:56.073Z,99374.03
2022-12-24T02:17:30.730Z,99378.94
2022-12-24T02:20:28.563Z,99385.81
2022-12-24T02:23:17.625Z,99376.41
2022-12-24T02:26:03.920Z,99386.94
2022-12-24T02:28:56.682Z,99391.56
2022-12-24T02:31:33.419Z,99393.25
2022-12-24T02:34:07.163Z,99410.53
2022-12-24T02:36:41.801Z,99404.22
2022-12-24T02:39:13.523Z,99409.09
2022-12-24T02:42:04.306Z,99413.87
2022-12-24T02:44:39.643Z,99407.97
2022-12-24T02:47:11.511Z,99409.81
2022-12-24T02:49:40.098Z,99411.06
2022-12-24T02:52:08.503Z,99418.38
2022-12-24T02:54:36.673Z,99420.91
2022-12-24T02:57:14.199Z,99424.25
2022-12-24T03:00:01.203Z,99426.38
2022-12-24T03:02:54.019Z,99422.88
2022-12-24T03:05:31.111Z,99434.09
2022-12-24T03:08:08.619Z,99425.94
2022-12-24T03:10:46.712Z,99428.91
2022-12-24T03:13:16.985Z,99437.44
2022-12-24T03:15:47.106Z,99431.28
2022-12-24T03:18:19.803Z,99437.44
2022-12-24T03:20:53.969Z,99431.28
2022-12-24T03:23:22.320Z,99439.72
2022-12-24T03:25:51.727Z,99445.69
2022-12-24T03:28:25.052Z,99448.69
2022-12-24T03:30:54.485Z,99456.81
2022-12-24T03:33:24.160Z,99459.75
2022-12-24T03:35:52.161Z,99458.38
2022-12-24T03:38:20.465Z,99469.31
2022-12-24T03:40:48.694Z,99466.78
2022-12-24T03:43:16.595Z,99465.06
2022-12-24T03:45:45.093Z,99476.34
2022-12-24T03:48:13.155Z,99471.09
2022-12-24T03:50:42.486Z,99482.78
2022-12-24T03:53:10.839Z,99479.28
2022-12-24T03:55:39.968Z,99484.19
2022-12-24T03:58:08.119Z,99480.25
2022-12-24T04:00:36.521Z,99493.88
2022-12-24T04:03:05.168Z,99495.53
2022-12-24T04:05:33.342Z,99491.34
2022-12-24T04:08:02.670Z,99505.75
2022-12-24T04:10:33.039Z,99510.56
2022-12-24T04:13:01.265Z,99515.22
2022-12-24T04:15:29.267Z,99523.63
2022-12-24T04:17:57.650Z,99524.72
2022-12-24T04:20:25.816Z,99527.84
2022-12-24T04:22:54.286Z,99530.94
2022-12-24T04:25:23.911Z,99534.75
2022-12-24T04:27:51.934Z,99541.03
2022-12-24T04:30:20.345Z,99540.78
2022-12-24T04:32:48.536Z,99543.28
2022-12-24T04:35:16.720Z,99546.69
2022-12-24T04:37:44.735Z,99554.84
2022-12-24T04:40:13.376Z,99567.37
2022-12-24T04:42:43.091Z,99559.03
2022-12-24T04:45:11.589Z,99562.34
2022-12-24T04:47:40.167Z,99562.00
2022-12-24T04:50:09.372Z,99556.72
2022-12-24T04:52:37.975Z,99551.97
2022-12-24T04:55:07.070Z,99551.69
2022-12-24T04:57:37.548Z,99552.09
2022-12-24T05:00:09.875Z,99557.84
2022-12-24T05:02:38.385Z,99556.44
2022-12-24T05:05:07.346Z,99565.81
2022-12-24T05:07:35.622Z,99568.06
2022-12-24T05:10:04.028Z,99568.06
2022-12-24T05:12:31.979Z,99571.88
2022-12-24T05:14:59.963Z,99579.13
2022-12-24T05:17:29.786Z,99578.59
2022-12-24T05:19:57.858Z,99582.22
2022-12-24T05:22:43.541Z,99592.38
2022-12-24T05:25:29.362Z,99599.69
2022-12-24T05:27:57.459Z,99596.59
2022-12-24T05:30:25.712Z,99606.88
2022-12-24T05:32:55.095Z,99609.12
2022-12-24T05:35:23.107Z,99619.47
2022-12-24T05:37:51.390Z,99610.38
2022-12-24T05:40:19.435Z,99615.72
2022-12-24T05:42:47.448Z,99623.06
2022-12-24T05:45:15.875Z,99627.06
2022-12-24T05:47:43.926Z,99630.88
2022-12-24T05:50:13.977Z,99645.44
2022-12-24T05:52:42.382Z,99654.12
2022-12-24T05:55:11.110Z,99661.00
2022-12-24T05:57:40.771Z,99671.53
2022-12-24T06:00:10.574Z,99668.53
2022-12-24T06:02:40.660Z,99674.00
2022-12-24T06:05:09.781Z,99681.13
2022-12-24T06:07:39.429Z,99682.75
2022-12-24T06:10:08.970Z,99685.38
2022-12-24T06:12:37.330Z,99684.72
2022-12-24T06:15:07.225Z,99698.47
2022-12-24T06:17:35.178Z,99700.09
2022-12-24T06:20:03.458Z,99707.44
2022-12-24T06:22:31.770Z,99704.22
2022-12-24T06:25:01.214Z,99706.91
2022-12-24T06:27:29.767Z,99713.63
2022-12-24T06:29:57.763Z,99708.84
2022-12-24T06:32:25.958Z,99713.84
2022-12-24T06:34:54.232Z,99723.81
2022-12-24T06:37:22.400Z,99723.81
2022-12-24T06:39:50.403Z,99723.06
2022-12-24T06:42:20.033Z,99731.44
2022-12-24T06:44:48.079Z,99733.66
2022-12-24T06:47:16.013Z,99740.94
2022-12-24T06:49:44.398Z,99740.41
2022-12-24T06:52:15.465Z,99740.28
2022-12-24T06:54:43.389Z,99750.03
2022-12-24T06:57:11.575Z,99754.63
2022-12-24T06:59:41.027Z,99759.38
2022-12-24T07:02:10.519Z,99762.41
2022-12-24T07:04:38.903Z,99760.16
2022-12-24T07:07:06.880Z,99768.16
2022-12-24T07:09:34.972Z,99770.88
2022-12-24T07:12:03.311Z,99777.09
2022-12-24T07:14:31.503Z,99783.16
2022-12-24T07:17:01.063Z,99792.44
2022-12-24T07:19:29.402Z,99803.37
2022-12-24T07:21:57.457Z,99799.62
2022-12-24T07:24:25.585Z,99812.72
2022-12-24T07:26:53.836Z,99815.47
2022-12-24T07:29:22.019Z,99823.84
2022-12-24T07:31:50.233Z,99820.69
2022-12-24T07:34:19.916Z,99822.31
2022-12-24T07:36:47.890Z,99826.41
2022-12-24T07:39:15.972Z,99827.25
2022-12-24T07:41:44.468Z,99834.16
2022-12-24T07:44:15.315Z,99840.06
2022-12-24T07:46:43.852Z,99845.03
2022-12-24T07:49:12.517Z,99845.03
2022-12-24T07:51:41.872Z,99847.31
2022-12-24T07:54:09.929Z,99857.63
2022-12-24T07:56:38.285Z,99858.69
2022-12-24T07:59:06.371Z,99864.97
2022-12-24T08:01:34.599Z,99871.53
2022-12-24T08:04:02.975Z,99874.56
2022-12-24T08:06:31.156Z,99875.53
2022-12-24T08:09:00.801Z,99881.91
2022-12-24T08:11:29.200Z,99877.22
2022-12-24T08:13:57.410Z,99891.69
2022-12-24T08:16:25.547Z,99891.59
2022-12-24T08:18:53.939Z,99902.16
2022-12-24T08:21:22.014Z,99905.28
2022-12-24T08:23:52.463Z,99899.50
2022-12-24T08:26:24.935Z,99899.50
2022-12-24T08:28:52.907Z,99905.91
2022-12-24T08:31:21.106Z,99911.81
2022-12-24T08:33:49.168Z,99919.69
2022-12-24T08:36:17.126Z,99926.84
2022-12-24T08:38:45.439Z,99932.16
2022-12-24T08:41:13.523Z,99934.81
2022-12-24T08:43:45.316Z,99938.72
2022-12-24T08:46:15.919Z,99944.38
2022-12-24T08:48:43.938Z,99953.47
2022-12-24T08:51:13.233Z,99955.66
2022-12-24T08:53:41.723Z,99954.31
2022-12-24T08:56:11.259Z,99959.50
2022-12-24T08:58:39.613Z,99966.06
2022-12-24T09:01:14.125Z,99966.56
2022-12-24T09:03:43.081Z,99968.84
2022-12-24T09:06:12.050Z,99974.28
2022-12-24T09:08:40.702Z,99971.72
2022-12-24T09:11:10.954Z,99979.59
2022-12-24T09:13:39.936Z,99986.47
2022-12-24T09:16:08.929Z,99995.31
2022-12-24T09:18:39.200Z,99991.22
2022-12-24T09:21:09.517Z,100000.66
2022-12-24T09:23:40.644Z,99999.81
2022-12-24T09:26:09.663Z,99995.56
2022-12-24T09:28:37.716Z,100003.28
2022-12-24T09:31:06.774Z,100001.25
2022-12-24T09:33:37.682Z,100017.44
2022-12-24T09:36:08.128Z,100019.25
2022-12-24T09:38:40.202Z,100018.50
2022-12-24T09:41:16.689Z,100027.31
2022-12-24T09:43:48.703Z,100020.03
2022-12-24T09:46:24.031Z,100030.56
2022-12-24T09:48:56.659Z,100026.87
2022-12-24T09:51:32.974Z,100032.41
2022-12-24T09:54:05.200Z,100027.97
2022-12-24T09:56:39.498Z,100038.44
2022-12-24T09:59:12.765Z,100046.63
2022-12-24T10:01:40.875Z,100060.03
2022-12-24T10:04:13.491Z,100054.00
2022-12-24T10:06:51.346Z,100067.75
2022-12-24T10:09:34.457Z,100076.06
2022-12-24T10:12:10.272Z,100087.16
2022-12-24T10:14:51.847Z,100079.84
2022-12-24T10:17:39.320Z,100087.34
2022-12-24T10:20:23.617Z,100075.97
2022-12-24T10:22:59.088Z,100079.94
2022-12-24T10:25:31.562Z,100071.78
2022-12-24T10:28:03.630Z,100072.16
2022-12-24T10:30:31.992Z,100078.69
2022-12-24T10:33:00.396Z,100079.75
2022-12-24T10:35:33.700Z,100085.88
2022-12-24T10:38:04.468Z,100090.06
2022-12-24T10:40:39.086Z,100093.19
2022-12-24T10:43:15.791Z,100096.69
2022-12-24T10:45:48.591Z,100088.34
2022-12-24T10:48:26.256Z,100097.19
2022-12-24T10:51:00.637Z,100092.59
2022-12-24T10:53:37.896Z,100088.66
2022-12-24T10:56:08.868Z,100096.69
2022-12-24T10:58:37.550Z,100103.00
2022-12-24T11:01:05.963Z,100109.53
2022-12-24T11:03:36.896Z,100106.59
2022-12-24T11:06:09.485Z,100104.97
2022-12-24T11:08:41.735Z,100105.22
2022-12-24T11:11:13.795Z,100113.53
2022-12-24T11:13:45.664Z,100112.22
2022-12-24T11:16:20.194Z,100110.34
2022-12-24T11:18:51.948Z,100112.06
2022-12-24T11:21:23.951Z,100116.72
2022-12-24T11:23:57.518Z,100127.56
2022-12-24T11:26:28.494Z,100129.13
2022-12-24T11:29:07.780Z,100123.38
2022-12-24T11:31:37.613Z,100126.13
2022-12-24T11:34:23.205Z,100117.28
2022-12-24T11:36:52.374Z,100120.41
2022-12-24T11:39:23.405Z,100122.94
2022-12-24T11:41:52.318Z,100128.31
2022-12-24T11:44:26.996Z,100130.97
2022-12-24T11:46:57.560Z,100127.03
2022-12-24T11:49:28.041Z,100126.25
2022-12-24T11:52:23.405Z,100123.47
2022-12-24T11:55:16.281Z,100133.72
2022-12-24T11:57:51.444Z,100130.34
2022-12-24T12:00:22.341Z,100133.84
2022-12-24T12:02:53.141Z,100133.84
2022-12-24T12:05:25.438Z,100125.13
2022-12-24T12:07:59.163Z,100129.63
2022-12-24T12:10:32.719Z,100132.66
2022-12-24T12:13:03.820Z,100115.88
2022-12-24T12:15:36.180Z,100127.12
2022-12-24T12:18:10.316Z,100126.62
2022-12-24T12:20:42.373Z,100138.38
2022-12-24T12:23:16.704Z,100140.50
2022-12-24T12:25:52.059Z,100138.00
2022-12-24T12:28:24.234Z,100141.94
2022-12-24T12:31:02.183Z,100129.38
2022-12-24T12:33:38.938Z,100138.66
2022-12-24T12:36:12.126Z,100131.13
2022-12-24T12:38:41.386Z,100138.31
2022-12-24T12:41:24.793Z,100136.19
2022-12-24T12:44:27.632Z,100137.31
2022-12-24T12:47:12.912Z,100143.16
2022-12-24T12:49:49.602Z,100143.28
2022-12-24T12:52:27.119Z,100145.66
2022-12-24T12:55:09.418Z,100138.63
2022-12-24T12:57:41.058Z,100135.94
2022-12-24T13:00:13.128Z,100142.47
2022-12-24T13:03:25.089Z,100140.25
2022-12-24T13:06:19.798Z,100148.44
2022-12-24T13:09:08.264Z,100148.53
2022-12-24T13:12:01.038Z,100141.97
2022-12-24T13:14:53.408Z,100148.84
2022-12-24T13:18:03.607Z,100150.38
2022-12-24T13:20:34.129Z,100158.09
2022-12-24T13:23:09.705Z,100167.31
2022-12-24T13:25:40.355Z,100175.50
2022-12-24T13:28:17.237Z,100190.53
2022-12-24T13:30:46.738Z,100193.50
2022-12-24T13:33:35.406Z,100210.78
2022-12-24T13:36:05.226Z,100209.91
2022-12-24T13:38:43.876Z,100218.31
2022-12-24T13:41:55.104Z,100218.00
2022-12-24T13:44:32.858Z,100227.34
2022-12-24T13:47:25.390Z,100223.19
2022-12-24T13:50:13.491Z,100230.31
2022-12-24T13:52:52.402Z,100231.50
2022-12-24T13:55:24.028Z,100234.22
2022-12-24T13:57:59.060Z,100240.09
2022-12-24T14:00:35.088Z,100251.00
2022-12-24T14:03:08.853Z,100253.09
2022-12-24T14:05:41.522Z,100255.03
2022-12-24T14:08:13.651Z,100252.53
2022-12-24T14:10:45.131Z,100251.09
2022-12-24T14:13:46.897Z,100259.69
2022-12-24T14:16:18.506Z,100252.44
2022-12-24T14:18:51.871Z,100258.00
2022-12-24T14:21:24.863Z,100255.13
2022-12-24T14:23:56.273Z,100264.22
2022-12-24T14:26:28.990Z,100264.22
2022-12-24T14:29:00.310Z,100277.44
2022-12-24T14:31:28.533Z,100272.09
2022-12-24T14:34:08.650Z,100274.03
2022-12-24T14:36:37.879Z,100280.84
2022-12-24T14:39:08.336Z,100283.59
2022-12-24T14:41:50.166Z,100289.56
2022-12-24T14:44:35.429Z,100293.81
2022-12-24T14:47:18.833Z,100290.22
2022-12-24T14:50:02.140Z,100298.75
2022-12-24T14:53:05.987Z,100313.69
2022-12-24T14:55:36.366Z,100325.13
2022-12-24T14:58:25.138Z,100307.41
2022-12-24T15:00:55.604Z,100311.50
2022-12-24T15:03:26.633Z,100310.78
2022-12-24T15:05:59.653Z,100324.87
2022-12-24T15:08:31.945Z,100321.91
2022-12-24T15:11:06.822Z,100329.03
2022-12-24T15:13:38.295Z,100336.84
2022-12-24T15:16:08.876Z,100334.78
2022-12-24T15:18:40.291Z,100340.25
2022-12-24T15:21:18.481Z,100343.03
2022-12-24T15:23:53.047Z,100344.72
2022-12-24T15:26:26.866Z,100345.81
2022-12-24T15:29:02.613Z,100344.97
2022-12-24T15:31:32.719Z,100345.19
2022-12-24T15:34:03.588Z,100346.38
2022-12-24T15:36:36.514Z,100336.19
2022-12-24T15:39:14.674Z,100345.47
2022-12-24T15:41:58.268Z,100338.28
2022-12-24T15:44:27.565Z,100334.72
2022-12-24T15:46:59.942Z,100345.37
2022-12-24T15:49:31.289Z,100345.41
2022-12-24T15:52:06.776Z,100350.34
2022-12-24T15:54:36.167Z,100352.91
2022-12-24T15:57:15.424Z,100358.13
2022-12-24T15:59:43.979Z,100355.06
2022-12-24T16:02:36.416Z,100352.41
2022-12-24T16:05:37.056Z,100353.69
2022-12-24T16:08:25.717Z,100354.97
2022-12-24T16:11:10.245Z,100354.56
2022-12-24T16:13:41.673Z,100356.22
2022-12-24T16:16:13.064Z,100358.47
2022-12-24T16:18:46.809Z,100356.34
2022-12-24T16:21:21.028Z,100356.75
2022-12-24T16:23:54.133Z,100361.44
2022-12-24T16:26:22.873Z,100360.78
2022-12-24T16:29:10.039Z,100363.56
2022-12-24T16:31:44.352Z,100366.41
2022-12-24T16:34:15.015Z,100364.72
2022-12-24T16:36:44.456Z,100376.84
2022-12-24T16:39:26.748Z,100368.09
2022-12-24T16:42:14.745Z,100374.28
2022-12-24T16:44:43.902Z,100374.09
2022-12-24T16:47:17.677Z,100386.53
2022-12-24T16:49:46.072Z,100390.78
2022-12-24T16:52:18.621Z,100395.12
2022-12-24T16:54:48.624Z,100395.78
2022-12-24T16:57:17.515Z,100393.78
2022-12-24T16:59:45.897Z,100393.56
2022-12-24T17:02:15.938Z,100397.91
2022-12-24T17:04:45.132Z,100407.81
2022-12-24T17:07:18.119Z,100397.41
2022-12-24T17:09:47.969Z,100399.28
2022-12-24T17:12:16.125Z,100404.06
2022-12-24T17:14:44.108Z,100418.50
2022-12-24T17:17:22.631Z,100415.19
2022-12-24T17:19:50.905Z,100417.00
2022-12-24T17:22:19.843Z,100431.47
2022-12-24T17:24:49.233Z,100428.03
2022-12-24T17:27:17.509Z,100429.16
2022-12-24T17:29:45.737Z,100435.53
2022-12-24T17:32:13.717Z,100431.47
2022-12-24T17:34:41.768Z,100440.50
2022-12-24T17:37:10.049Z,100438.25
2022-12-24T17:39:38.275Z,100436.75
2022-12-24T17:42:07.668Z,100444.25
2022-12-24T17:44:36.360Z,100445.41
2022-12-24T17:47:06.018Z,100441.16
2022-12-24T17:49:34.055Z,100445.62
2022-12-24T17:52:03.266Z,100454.25
2022-12-24T17:54:34.468Z,100459.56
2022-12-24T17:57:02.798Z,100463.09
2022-12-24T17:59:32.216Z,100463.25
2022-12-24T18:02:00.515Z,100466.12
2022-12-24T18:04:28.982Z,100465.38
2022-12-24T18:07:02.181Z,100466.22
2022-12-24T18:09:31.298Z,100466.75
2022-12-24T18:12:00.097Z,100478.53
2022-12-24T18:14:32.526Z,100477.97
2022-12-24T18:17:00.901Z,100479.00
2022-12-24T18:19:28.887Z,100486.22
2022-12-24T18:21:57.157Z,100482.13
2022-12-24T18:24:25.448Z,100488.50
2022-12-24T18:26:53.444Z,100493.25
2022-12-24T18:29:21.448Z,100498.72
2022-12-24T18:31:51.941Z,100497.13
2022-12-24T18:34:20.041Z,100497.97
2022-12-24T18:36:54.550Z,100497.31
2022-12-24T18:39:23.679Z,100502.78
2022-12-24T18:41:52.099Z,100505.75
2022-12-24T18:44:24.844Z,100506.03
2022-12-24T18:46:55.663Z,100509.69
2022-12-24T18:49:23.724Z,100506.50
2022-12-24T18:51:51.781Z,100512.84
2022-12-24T18:54:20.382Z,100514.06
2022-12-24T18:56:51.551Z,100519.44
2022-12-24T18:59:19.853Z,100522.38
2022-12-24T19:01:48.065Z,100520.75
2022-12-24T19:04:17.940Z,100531.28
2022-12-24T19:06:52.723Z,100537.72
2022-12-24T19:09:21.702Z,100536.66
2022-12-24T19:11:50.346Z,100532.41
2022-12-24T19:14:20.182Z,100533.75
2022-12-24T19:16:48.357Z,100540.78
2022-12-24T19:19:18.801Z,100545.13
2022-12-24T19:21:46.880Z,100547.94
2022-12-24T19:24:15.425Z,100550.03
2022-12-24T19:26:43.685Z,100551.91
2022-12-24T19:29:12.002Z,100555.53
2022-12-24T19:31:40.704Z,100562.03
2022-12-24T19:34:08.975Z,100552.44
2022-12-24T19:36:38.404Z,100560.66
2022-12-24T19:39:06.855Z,100560.16
2022-12-24T19:41:35.226Z,100562.19
2022-12-24T19:44:03.406Z,100574.88
2022-12-24T19:46:33.474Z,100571.47
2022-12-24T19:49:05.244Z,100572.56
2022-12-24T19:51:34.700Z,100569.25
2022-12-24T19:54:05.980Z,100571.38
2022-12-24T19:56:34.564Z,100571.88
2022-12-24T19:59:03.981Z,100565.31
2022-12-24T20:01:34.720Z,100566.66
2022-12-24T20:04:03.933Z,100560.97
2022-12-24T20:06:34.333Z,100554.09
2022-12-24T20:09:06.807Z,100553.66
2022-12-24T20:11:36.113Z,100554.03
2022-12-24T20:14:05.505Z,100553.25
2022-12-24T20:16:34.494Z,100558.87
2022-12-24T20:19:04.373Z,100569.78
2022-12-24T20:21:32.932Z,100566.63
2022-12-24T20:24:00.997Z,100575.56
2022-12-24T20:26:31.108Z,100571.28
2022-12-24T20:28:59.583Z,100571.63
2022-12-24T20:31:30.329Z,100569.13
2022-12-24T20:33:59.548Z,100580.75
2022-12-24T20:36:29.581Z,100580.06
2022-12-24T20:38:58.517Z,100592.53
2022-12-24T20:41:29.144Z,100584.62
2022-12-24T20:43:59.732Z,100587.38
2022-12-24T20:46:31.057Z,100586.69
2022-12-24T20:48:59.492Z,100594.62
2022-12-24T20:51:29.127Z,100590.50
2022-12-24T20:54:00.864Z,100583.75
2022-12-24T20:56:30.780Z,100586.00
2022-12-24T20:59:01.878Z,100580.78
2022-12-24T21:01:31.154Z,100578.59
2022-12-24T21:04:04.695Z,100587.59
2022-12-24T21:06:33.614Z,100586.91
2022-12-24T21:09:01.891Z,100588.91
2022-12-24T21:11:47.481Z,100582.75
2022-12-24T21:14:18.434Z,100588.97
2022-12-24T21:16:47.158Z,100603.84
2022-12-24T21:19:19.283Z,100611.72
2022-12-24T21:21:48.326Z,100612.56
2022-12-24T21:24:17.125Z,100618.53
2022-12-24T21:26:45.250Z,100624.69
2022-12-24T21:29:13.408Z,100611.53
2022-12-24T21:31:43.924Z,100618.72
2022-12-24T21:34:12.042Z,100611.72
2022-12-24T21:36:40.285Z,100609.84
2022-12-24T21:39:08.603Z,100606.44
2022-12-24T21:41:36.569Z,100609.84
2022-12-24T21:44:07.507Z,100617.59
2022-12-24T21:46:36.123Z,100626.31
2022-12-24T21:49:23.102Z,100628.25
2022-12-24T21:51:51.414Z,100637.13
2022-12-24T21:54:26.853Z,100635.50
2022-12-24T21:57:15.069Z,100636.56
2022-12-24T21:59:43.159Z,100643.87
2022-12-24T22:02:13.135Z,100656.31
2022-12-24T22:04:43.535Z,100655.69
2022-12-24T22:07:38.268Z,100660.87
2022-12-24T22:10:25.796Z,100662.47
2022-12-24T22:12:53.965Z,100665.13
2022-12-24T22:15:22.763Z,100674.03
2022-12-24T22:17:50.948Z,100679.62
2022-12-24T22:20:20.390Z,100678.97
2022-12-24T22:22:49.152Z,100674.69
2022-12-24T22:25:17.759Z,100678.91
2022-12-24T22:27:45.827Z,100682.19
2022-12-24T22:30:14.306Z,100686.31
2022-12-24T22:32:42.282Z,100679.19
2022-12-24T22:35:10.727Z,100686.09
2022-12-24T22:37:40.459Z,100693.09
2022-12-24T22:40:10.004Z,100691.47
2022-12-24T22:42:38.655Z,100694.81
2022-12-24T22:45:07.883Z,100692.88
2022-12-24T22:47:35.980Z,100693.66
2022-12-24T22:50:05.175Z,100695.22
2022-12-24T22:52:33.856Z,100699.56
2022-12-24T22:55:03.912Z,100706.38
2022-12-24T22:57:32.420Z,100706.22
2022-12-24T23:00:00.341Z,100706.91
2022-12-24T23:02:29.185Z,100707.84
2022-12-24T23:04:59.069Z,100703.56
2022-12-24T23:07:28.896Z,100694.84
2022-12-24T23:09:57.963Z,100700.22
2022-12-24T23:12:45.508Z,100692.38
2022-12-24T23:15:13.645Z,100696.81
2022-12-24T23:17:42.147Z,100707.16
2022-12-24T23:20:11.266Z,100707.06
2022-12-24T23:22:39.433Z,100708.00
2022-12-24T23:25:08.032Z,100714.22
2022-12-24T23:27:37.642Z,100710.72
2022-12-24T23:30:06.525Z,100716.00
2022-12-24T23:32:34.810Z,100708.00
2022-12-24T23:35:02.818Z,100709.00
2022-12-24T23:37:35.144Z,100708.16
2022-12-24T23:40:03.902Z,100702.88
2022-12-24T23:42:31.830Z,100694.16
2022-12-24T23:45:01.345Z,100695.13
2022-12-24T23:47:29.796Z,100696.00
2022-12-24T23:49:58.300Z,100697.72
2022-12-24T23:52:26.382Z,100694.28
2022-12-24T23:54:54.656Z,100691.72
2022-12-24T23:57:22.636Z,100704.25
2022-12-24T23:59:50.634Z,100707.00
